createdAt,value
2019-03-31T00:02:26.864Z,7.98
2019-03-31T00:04:59.539Z,8.00
2019-03-31T00:07:32.218Z,8.00
2019-03-31T00:10:06.571Z,8.00
2019-03-31T00:12:39.627Z,8.00
2019-03-31T00:15:12.506Z,8.05
2019-03-31T00:17:45.094Z,8.00
2019-03-31T00:20:17.972Z,7.99
2019-03-31T00:22:50.552Z,7.97
2019-03-31T00:25:23.126Z,7.95
2019-03-31T00:27:55.697Z,7.93
2019-03-31T00:30:28.998Z,7.91
2019-03-31T00:33:01.730Z,7.90
2019-03-31T00:35:34.348Z,7.90
2019-03-31T00:38:06.927Z,7.94
2019-03-31T00:40:39.507Z,7.89
2019-03-31T00:43:12.084Z,7.89
2019-03-31T00:45:44.654Z,7.87
2019-03-31T00:48:18.263Z,7.80
2019-03-31T00:50:50.834Z,7.75
2019-03-31T00:53:24.542Z,7.69
2019-03-31T00:55:57.117Z,7.69
2019-03-31T00:58:29.692Z,7.71
2019-03-31T01:01:04.301Z,7.72
2019-03-31T01:03:38.940Z,7.71
2019-03-31T01:06:12.443Z,7.70
2019-03-31T01:08:46.754Z,7.73
2019-03-31T01:11:22.408Z,7.67
2019-03-31T01:13:56.930Z,7.67
2019-03-31T01:16:31.446Z,7.69
2019-03-31T01:19:04.545Z,7.70
2019-03-31T01:21:37.119Z,7.69
2019-03-31T01:24:09.805Z,7.70
2019-03-31T01:26:43.278Z,7.69
2019-03-31T01:29:17.102Z,7.67
2019-03-31T01:31:50.906Z,7.66
2019-03-31T01:34:24.916Z,7.66
2019-03-31T01:36:57.591Z,7.67
2019-03-31T01:39:31.504Z,7.64
2019-03-31T01:42:04.179Z,7.69
2019-03-31T01:44:36.369Z,7.70
2019-03-31T01:47:09.438Z,7.67
2019-03-31T01:49:42.010Z,7.69
2019-03-31T01:52:14.594Z,7.69
2019-03-31T01:54:47.171Z,7.66
2019-03-31T01:57:19.747Z,7.72
2019-03-31T01:59:52.167Z,7.73
2019-03-31T02:02:29.397Z,7.72
2019-03-31T02:05:01.982Z,7.70
2019-03-31T02:07:35.478Z,7.68
2019-03-31T02:10:09.590Z,7.74
2019-03-31T02:12:43.812Z,7.75
2019-03-31T02:15:16.891Z,7.78
2019-03-31T02:17:49.531Z,7.77
2019-03-31T02:20:23.690Z,7.77
2019-03-31T02:22:56.268Z,7.72
2019-03-31T02:25:28.458Z,7.70
2019-03-31T02:28:01.007Z,7.69
2019-03-31T02:30:33.585Z,7.70
2019-03-31T02:33:06.059Z,7.67
2019-03-31T02:35:38.239Z,7.67
2019-03-31T02:38:10.805Z,7.67
2019-03-31T02:40:43.886Z,7.70
2019-03-31T02:43:16.463Z,7.73
2019-03-31T02:45:49.253Z,7.71
2019-03-31T02:48:21.826Z,7.77
2019-03-31T02:50:55.835Z,7.81
2019-03-31T02:53:28.571Z,7.86
2019-03-31T02:56:02.039Z,7.90
2019-03-31T02:58:34.790Z,7.95
2019-03-31T03:01:07.475Z,7.96
2019-03-31T03:03:42.408Z,8.01
2019-03-31T03:06:16.176Z,8.10
2019-03-31T03:08:51.593Z,8.13
2019-03-31T03:11:25.761Z,8.17
2019-03-31T03:14:02.237Z,8.22
2019-03-31T03:16:34.947Z,8.26
2019-03-31T03:19:07.487Z,8.28
2019-03-31T03:21:40.073Z,8.31
2019-03-31T03:24:12.657Z,8.34
2019-03-31T03:26:45.226Z,8.36
2019-03-31T03:29:17.691Z,8.36
2019-03-31T03:31:50.614Z,8.40
2019-03-31T03:34:23.374Z,8.45
2019-03-31T03:36:55.949Z,8.47
2019-03-31T03:39:28.516Z,8.54
2019-03-31T03:42:01.091Z,8.50
2019-03-31T03:44:33.669Z,8.49
2019-03-31T03:47:06.248Z,8.52
2019-03-31T03:49:38.838Z,8.54
2019-03-31T03:52:11.389Z,8.57
2019-03-31T03:54:43.975Z,8.60
2019-03-31T03:57:16.569Z,8.62
2019-03-31T03:59:49.101Z,8.65
2019-03-31T04:02:21.318Z,8.64
2019-03-31T04:04:53.974Z,8.69
2019-03-31T04:07:26.551Z,8.69
2019-03-31T04:09:59.127Z,8.65
2019-03-31T04:12:31.708Z,8.63
2019-03-31T04:15:04.273Z,8.65
2019-03-31T04:17:36.858Z,8.64
2019-03-31T04:20:09.438Z,8.63
2019-03-31T04:22:42.026Z,8.62
2019-03-31T04:25:14.594Z,8.61
2019-03-31T04:27:47.227Z,8.60
2019-03-31T04:30:19.739Z,8.58
2019-03-31T04:32:51.938Z,8.53
2019-03-31T04:35:24.586Z,8.52
2019-03-31T04:37:57.157Z,8.48
2019-03-31T04:40:29.531Z,8.51
2019-03-31T04:43:01.722Z,8.45
2019-03-31T04:45:34.688Z,8.44
2019-03-31T04:48:07.266Z,8.43
2019-03-31T04:50:41.271Z,8.41
2019-03-31T04:53:14.568Z,8.38
2019-03-31T04:55:48.477Z,8.42
2019-03-31T04:58:21.056Z,8.41
2019-03-31T05:00:53.640Z,8.40
2019-03-31T05:03:26.211Z,8.40
2019-03-31T05:05:58.790Z,8.44
2019-03-31T05:08:31.565Z,8.44
2019-03-31T05:11:04.146Z,8.45
2019-03-31T05:13:36.558Z,8.47
2019-03-31T05:16:09.079Z,8.49
2019-03-31T05:18:41.763Z,8.50
2019-03-31T05:21:14.237Z,8.55
2019-03-31T05:23:46.818Z,8.58
2019-03-31T05:26:20.427Z,8.63
2019-03-31T05:28:52.997Z,8.66
2019-03-31T05:31:25.630Z,8.75
2019-03-31T05:33:57.833Z,8.80
2019-03-31T05:36:30.310Z,8.82
2019-03-31T05:39:02.903Z,8.85
2019-03-31T05:41:35.468Z,8.90
2019-03-31T05:44:08.450Z,8.95
2019-03-31T05:46:41.037Z,9.00
2019-03-31T05:49:13.716Z,9.01
2019-03-31T05:51:46.290Z,9.11
2019-03-31T05:54:18.865Z,9.14
2019-03-31T05:56:51.442Z,9.24
2019-03-31T05:59:24.018Z,9.37
2019-03-31T06:01:56.596Z,9.38
2019-03-31T06:04:33.437Z,9.41
2019-03-31T06:07:02.979Z,9.49
2019-03-31T06:09:35.552Z,9.53
2019-03-31T06:12:08.139Z,9.58
2019-03-31T06:14:40.724Z,9.63
2019-03-31T06:17:14.309Z,9.73
2019-03-31T06:19:46.884Z,9.69
2019-03-31T06:22:19.454Z,9.75
2019-03-31T06:24:52.033Z,9.80
2019-03-31T06:27:25.636Z,9.86
2019-03-31T06:29:58.210Z,9.97
2019-03-31T06:32:30.790Z,10.07
2019-03-31T06:35:02.983Z,10.10
2019-03-31T06:37:35.529Z,10.10
2019-03-31T06:40:08.016Z,10.21
2019-03-31T06:42:40.383Z,10.18
2019-03-31T06:45:12.958Z,10.39
2019-03-31T06:47:45.529Z,10.73
2019-03-31T06:50:18.214Z,11.03
2019-03-31T06:52:50.738Z,10.99
2019-03-31T06:55:23.474Z,11.05
2019-03-31T06:57:56.046Z,11.21
2019-03-31T07:00:28.622Z,11.30
2019-03-31T07:03:01.251Z,11.07
2019-03-31T07:05:33.457Z,10.82
2019-03-31T07:08:06.147Z,10.80
2019-03-31T07:10:38.727Z,10.77
2019-03-31T07:13:11.314Z,10.87
2019-03-31T07:15:43.882Z,11.17
2019-03-31T07:18:16.495Z,11.16
2019-03-31T07:20:49.135Z,11.30
2019-03-31T07:23:21.805Z,11.41
2019-03-31T07:25:54.393Z,11.44
2019-03-31T07:28:26.974Z,11.36
2019-03-31T07:30:59.570Z,11.81
2019-03-31T07:33:32.521Z,12.07
2019-03-31T07:36:05.106Z,12.07
2019-03-31T07:38:39.241Z,11.88
2019-03-31T07:41:12.985Z,12.02
2019-03-31T07:43:47.027Z,12.00
2019-03-31T07:46:19.707Z,12.00
2019-03-31T07:48:52.298Z,12.06
2019-03-31T07:51:24.865Z,11.92
2019-03-31T07:53:57.441Z,12.08
2019-03-31T07:56:30.028Z,12.18
2019-03-31T07:59:02.672Z,12.50
2019-03-31T08:01:35.270Z,12.86
2019-03-31T08:04:07.855Z,13.14
2019-03-31T08:06:40.936Z,12.94
2019-03-31T08:09:13.511Z,12.94
2019-03-31T08:11:46.093Z,13.30
2019-03-31T08:14:18.670Z,13.32
2019-03-31T08:16:51.244Z,13.09
2019-03-31T08:19:23.824Z,13.19
2019-03-31T08:21:56.502Z,13.50
2019-03-31T08:24:30.611Z,13.72
2019-03-31T08:27:05.575Z,13.73
2019-03-31T08:29:37.511Z,13.82
2019-03-31T08:32:10.188Z,13.79
2019-03-31T08:34:42.768Z,13.60
2019-03-31T08:37:14.969Z,14.03
2019-03-31T08:39:47.530Z,14.33
2019-03-31T08:42:20.086Z,14.13
2019-03-31T08:44:52.220Z,13.74
2019-03-31T08:47:24.931Z,14.20
2019-03-31T08:49:57.506Z,13.62
2019-03-31T08:52:30.391Z,13.55
2019-03-31T08:55:02.967Z,12.60
2019-03-31T08:57:36.678Z,12.55
2019-03-31T09:00:13.431Z,12.82
2019-03-31T09:02:46.023Z,13.10
2019-03-31T09:05:18.601Z,13.48
2019-03-31T09:07:51.171Z,13.32
2019-03-31T09:10:23.754Z,13.43
2019-03-31T09:12:56.330Z,13.44
2019-03-31T09:15:28.907Z,13.58
2019-03-31T09:18:01.482Z,12.59
2019-03-31T09:20:34.056Z,12.53
2019-03-31T09:23:06.251Z,12.92
2019-03-31T09:25:38.797Z,13.19
2019-03-31T09:28:37.849Z,12.95
2019-03-31T09:31:11.243Z,12.86
2019-03-31T09:33:44.025Z,13.15
2019-03-31T09:36:16.994Z,13.40
2019-03-31T09:38:49.972Z,12.87
2019-03-31T09:41:22.227Z,13.16
2019-03-31T09:43:54.946Z,12.84
2019-03-31T09:46:28.135Z,12.81
2019-03-31T09:49:00.711Z,12.81
2019-03-31T09:51:32.845Z,12.82
2019-03-31T09:54:05.970Z,12.73
2019-03-31T09:56:39.570Z,12.38
2019-03-31T09:59:12.153Z,12.70
2019-03-31T10:01:45.027Z,12.54
2019-03-31T10:04:18.224Z,13.13
2019-03-31T10:06:50.793Z,13.34
2019-03-31T10:09:23.371Z,13.33
2019-03-31T10:11:56.153Z,13.02
2019-03-31T10:14:28.831Z,13.18
2019-03-31T10:17:01.518Z,13.14
2019-03-31T10:19:34.195Z,13.08
2019-03-31T10:22:06.781Z,12.57
2019-03-31T10:24:39.447Z,12.93
2019-03-31T10:27:12.325Z,13.04
2019-03-31T10:29:45.419Z,13.42
2019-03-31T10:32:19.218Z,13.14
2019-03-31T10:34:53.440Z,13.43
2019-03-31T10:37:26.026Z,14.45
2019-03-31T10:39:59.209Z,14.22
2019-03-31T10:42:31.692Z,14.69
2019-03-31T10:45:05.798Z,13.99
2019-03-31T10:47:38.682Z,14.96
2019-03-31T10:50:11.512Z,14.29
2019-03-31T10:52:43.599Z,13.95
2019-03-31T10:55:16.232Z,13.30
2019-03-31T10:57:50.012Z,13.84
2019-03-31T11:00:35.897Z,14.37
2019-03-31T11:03:09.030Z,14.54
2019-03-31T11:05:42.991Z,14.22
2019-03-31T11:08:15.891Z,14.01
2019-03-31T11:10:48.867Z,14.02
2019-03-31T11:13:21.446Z,13.49
2019-03-31T11:15:57.343Z,13.19
2019-03-31T11:18:28.433Z,12.91
2019-03-31T11:21:02.659Z,13.47
2019-03-31T11:23:35.281Z,13.71
2019-03-31T11:26:08.117Z,13.75
2019-03-31T11:28:41.100Z,13.10
2019-03-31T11:31:13.790Z,13.38
2019-03-31T11:33:48.098Z,13.53
2019-03-31T11:36:20.883Z,12.94
2019-03-31T11:38:53.468Z,12.78
2019-03-31T11:41:26.442Z,12.68
2019-03-31T11:44:01.471Z,13.49
2019-03-31T11:46:34.058Z,13.42
2019-03-31T11:49:07.142Z,13.17
2019-03-31T11:51:39.820Z,13.43
2019-03-31T11:54:12.493Z,14.02
2019-03-31T11:56:44.913Z,13.73
2019-03-31T11:59:20.681Z,13.32
2019-03-31T12:01:52.544Z,13.19
2019-03-31T12:04:25.174Z,12.72
2019-03-31T12:06:57.841Z,12.42
2019-03-31T12:09:30.417Z,12.46
2019-03-31T12:12:03.101Z,12.26
2019-03-31T12:14:37.409Z,12.39
2019-03-31T12:17:10.299Z,12.81
2019-03-31T12:19:43.554Z,12.85
2019-03-31T12:22:16.678Z,13.80
2019-03-31T12:24:49.259Z,14.60
2019-03-31T12:27:21.447Z,13.79
2019-03-31T12:29:54.002Z,12.97
2019-03-31T12:32:26.184Z,12.63
2019-03-31T12:34:58.951Z,12.71
2019-03-31T12:37:42.243Z,12.56
2019-03-31T12:40:09.423Z,12.32
2019-03-31T12:42:42.114Z,12.08
2019-03-31T12:45:15.606Z,12.02
2019-03-31T12:47:48.181Z,11.97
2019-03-31T12:50:21.886Z,11.57
2019-03-31T12:52:54.568Z,11.32
2019-03-31T12:55:28.200Z,11.46
2019-03-31T12:58:02.174Z,11.63
2019-03-31T13:00:35.166Z,11.59
2019-03-31T13:03:07.852Z,11.28
2019-03-31T13:05:40.835Z,11.39
2019-03-31T13:08:14.111Z,11.32
2019-03-31T13:10:46.689Z,13.27
2019-03-31T13:13:19.433Z,14.43
2019-03-31T13:15:52.107Z,14.90
2019-03-31T13:18:27.774Z,14.65
2019-03-31T13:20:58.992Z,14.01
2019-03-31T13:23:31.634Z,13.12
2019-03-31T13:26:04.212Z,12.80
2019-03-31T13:28:36.415Z,12.32
2019-03-31T13:31:09.151Z,12.00
2019-03-31T13:33:41.838Z,11.80
2019-03-31T13:36:14.319Z,11.55
2019-03-31T13:38:47.504Z,11.96
2019-03-31T13:41:20.091Z,11.84
2019-03-31T13:43:52.644Z,11.65
2019-03-31T13:46:25.859Z,11.58
2019-03-31T13:48:58.522Z,12.15
2019-03-31T13:51:30.757Z,12.06
2019-03-31T13:54:03.716Z,12.10
2019-03-31T13:56:38.551Z,13.99
2019-03-31T13:59:11.375Z,15.51
2019-03-31T14:01:44.902Z,15.78
2019-03-31T14:07:18.176Z,16.33
2019-03-31T14:09:56.106Z,17.38
2019-03-31T14:15:43.976Z,16.79
2019-03-31T14:28:36.326Z,18.01
2019-03-31T14:40:52.309Z,18.48
2019-03-31T14:54:15.111Z,20.20
2019-03-31T14:57:13.873Z,16.98
2019-03-31T15:46:58.553Z,17.87
2019-03-31T15:49:44.051Z,14.12
2019-03-31T15:58:35.185Z,13.00
2019-03-31T16:01:18.299Z,12.46
2019-03-31T16:04:05.565Z,12.17
2019-03-31T16:06:51.788Z,11.94
2019-03-31T16:13:02.434Z,14.40
2019-03-31T16:19:54.980Z,14.51
2019-03-31T16:22:37.388Z,12.97
2019-03-31T16:28:52.712Z,12.91
2019-03-31T16:31:31.422Z,12.57
2019-03-31T16:34:11.825Z,12.14
2019-03-31T16:37:07.802Z,12.06
2019-03-31T16:39:52.988Z,12.31
2019-03-31T16:42:27.206Z,12.72
2019-03-31T16:45:13.015Z,13.02
2019-03-31T16:47:56.853Z,12.15
2019-03-31T16:50:36.749Z,11.97
2019-03-31T16:59:35.883Z,12.39
2019-03-31T17:05:21.669Z,11.04
2019-03-31T17:07:49.742Z,10.66
2019-03-31T17:10:30.703Z,10.49
2019-03-31T17:13:06.854Z,10.18
2019-03-31T17:15:40.894Z,10.00
2019-03-31T17:18:14.031Z,9.87
2019-03-31T17:20:48.929Z,9.76
2019-03-31T17:23:22.118Z,9.62
2019-03-31T17:25:54.997Z,9.54
2019-03-31T17:28:27.649Z,9.43
2019-03-31T17:31:01.302Z,9.33
2019-03-31T17:33:35.070Z,9.24
2019-03-31T17:36:07.312Z,9.15
2019-03-31T17:38:40.509Z,9.04
2019-03-31T17:41:15.621Z,9.01
2019-03-31T17:43:48.988Z,8.88
2019-03-31T17:46:25.329Z,8.77
2019-03-31T17:48:59.367Z,8.69
2019-03-31T17:51:33.959Z,8.58
2019-03-31T17:54:09.367Z,8.51
2019-03-31T17:56:45.413Z,8.43
2019-03-31T17:59:20.203Z,8.36
2019-03-31T18:01:53.562Z,8.23
2019-03-31T18:04:26.727Z,8.16
2019-03-31T18:07:00.182Z,8.05
2019-03-31T18:09:33.119Z,8.00
2019-03-31T18:12:06.215Z,7.93
2019-03-31T18:14:39.132Z,7.83
2019-03-31T18:17:11.941Z,7.76
2019-03-31T18:19:44.418Z,7.69
2019-03-31T18:22:17.326Z,7.67
2019-03-31T18:24:50.212Z,7.56
2019-03-31T18:27:23.096Z,7.57
2019-03-31T18:29:56.933Z,7.52
2019-03-31T18:32:29.755Z,7.41
2019-03-31T18:35:03.714Z,7.34
2019-03-31T18:37:36.131Z,7.27
2019-03-31T18:40:10.815Z,7.21
2019-03-31T18:42:45.069Z,7.10
2019-03-31T18:45:19.832Z,7.02
2019-03-31T18:47:54.128Z,6.92
2019-03-31T18:50:27.004Z,6.84
2019-03-31T18:52:59.549Z,6.75
2019-03-31T18:55:34.428Z,6.66
2019-03-31T18:58:08.994Z,6.50
2019-03-31T19:00:48.976Z,6.42
2019-03-31T19:03:26.022Z,6.32
2019-03-31T19:06:07.054Z,6.23
2019-03-31T19:09:02.840Z,6.14
2019-03-31T19:11:54.246Z,6.05
2019-03-31T19:14:39.110Z,5.97
2019-03-31T19:17:16.466Z,5.91
2019-03-31T19:19:52.596Z,5.86
2019-03-31T19:22:37.399Z,5.81
2019-03-31T19:25:13.586Z,5.81
2019-03-31T19:27:51.781Z,5.75
2019-03-31T19:30:35.932Z,5.66
2019-03-31T19:33:26.667Z,5.60
2019-03-31T19:36:14.160Z,5.61
2019-03-31T19:39:03.433Z,5.55
2019-03-31T19:41:54.515Z,5.48
2019-03-31T19:44:45.340Z,5.41
2019-03-31T19:47:36.001Z,5.36
2019-03-31T19:50:11.697Z,5.33
2019-03-31T19:52:51.307Z,5.27
2019-03-31T19:55:35.294Z,5.21
2019-03-31T19:58:15.713Z,5.16
2019-03-31T20:00:55.768Z,5.05
2019-03-31T20:03:45.317Z,4.93
2019-03-31T20:06:26.884Z,4.91
2019-03-31T20:09:08.579Z,4.84
2019-03-31T20:11:43.671Z,4.78
2019-03-31T20:14:34.088Z,4.77
2019-03-31T20:17:20.735Z,4.70
2019-03-31T20:19:58.185Z,4.66
2019-03-31T20:22:35.184Z,4.60
2019-03-31T20:25:10.503Z,4.53
2019-03-31T20:27:48.955Z,4.46
2019-03-31T20:30:38.779Z,4.41
2019-03-31T20:33:11.053Z,4.36
2019-03-31T20:35:55.092Z,4.29
2019-03-31T20:38:30.437Z,4.22
2019-03-31T20:41:20.733Z,4.16
2019-03-31T20:43:53.516Z,4.10
2019-03-31T20:46:26.295Z,4.02
2019-03-31T20:48:59.185Z,3.95
2019-03-31T20:51:31.874Z,3.86
2019-03-31T20:54:04.718Z,3.83
2019-03-31T20:56:37.322Z,3.77
2019-03-31T20:59:10.010Z,3.72
2019-03-31T21:01:42.882Z,3.70
2019-03-31T21:04:15.999Z,3.66
2019-03-31T21:06:49.162Z,3.66
2019-03-31T21:09:22.147Z,3.66
2019-03-31T21:11:54.725Z,3.62
2019-03-31T21:14:27.307Z,3.57
2019-03-31T21:16:59.880Z,3.62
2019-03-31T21:19:32.762Z,3.54
2019-03-31T21:22:05.345Z,3.53
2019-03-31T21:24:37.909Z,3.51
2019-03-31T21:27:10.800Z,3.56
2019-03-31T21:29:43.368Z,3.55
2019-03-31T21:32:15.906Z,3.56
2019-03-31T21:34:49.870Z,3.57
2019-03-31T21:37:23.265Z,3.56
2019-03-31T21:39:56.144Z,3.51
2019-03-31T21:42:28.275Z,3.43
2019-03-31T21:45:00.891Z,3.38
2019-03-31T21:47:33.562Z,3.32
2019-03-31T21:50:08.190Z,3.29
2019-03-31T21:52:40.312Z,3.27
2019-03-31T21:55:13.436Z,3.20
2019-03-31T21:57:45.919Z,3.17
2019-03-31T22:00:20.854Z,3.09
2019-03-31T22:02:54.970Z,3.07
2019-03-31T22:05:27.750Z,3.04
2019-03-31T22:08:03.809Z,2.96
2019-03-31T22:10:35.160Z,2.90
2019-03-31T22:13:09.365Z,2.90
2019-03-31T22:15:42.054Z,2.85
2019-03-31T22:18:14.623Z,2.82
2019-03-31T22:20:47.506Z,2.78
2019-03-31T22:23:20.506Z,2.74
2019-03-31T22:25:53.581Z,2.73
2019-03-31T22:28:26.163Z,2.68
2019-03-31T22:30:58.840Z,2.68
2019-03-31T22:33:31.527Z,2.67
2019-03-31T22:36:22.527Z,2.66
2019-03-31T22:38:56.431Z,2.67
2019-03-31T22:41:29.103Z,2.64
2019-03-31T22:44:01.687Z,2.63
2019-03-31T22:46:34.360Z,2.58
2019-03-31T22:49:07.463Z,2.60
2019-03-31T22:51:40.037Z,2.58
2019-03-31T22:54:12.603Z,2.60
2019-03-31T22:56:45.339Z,2.59
2019-03-31T22:59:17.866Z,2.58
2019-03-31T23:01:50.442Z,2.57
2019-03-31T23:04:23.019Z,2.60
2019-03-31T23:06:55.695Z,2.59
2019-03-31T23:09:28.274Z,2.59
2019-03-31T23:12:00.952Z,2.57
2019-03-31T23:14:33.529Z,2.53
2019-03-31T23:17:06.208Z,2.53
2019-03-31T23:19:38.785Z,2.49
2019-03-31T23:22:11.468Z,2.43
2019-03-31T23:24:43.937Z,2.42
2019-03-31T23:27:16.103Z,2.41
2019-03-31T23:29:48.578Z,2.38
2019-03-31T23:32:21.159Z,2.36
2019-03-31T23:34:54.101Z,2.34
2019-03-31T23:37:28.473Z,2.35
2019-03-31T23:40:02.267Z,2.31
2019-03-31T23:42:34.994Z,2.31
2019-03-31T23:45:09.465Z,2.29
2019-03-31T23:47:42.044Z,2.30
2019-03-31T23:50:15.333Z,2.26
2019-03-31T23:52:48.017Z,2.25
2019-03-31T23:55:20.485Z,2.21
2019-03-31T23:57:54.192Z,2.21
